sensor_id;sensor_type;location;lat;lon;timestamp;P1;durP1;ratioP1;P2;durP2;ratioP2
27303;SDS011;14791;52.392;13.092;2023-07-29T00:01:35;2.40;;;2.40;;
27303;SDS011;14791;52.392;13.092;2023-07-29T00:04:04;2.17;;;2.17;;
27303;SDS011;14791;52.392;13.092;2023-07-29T00:06:33;2.80;;;2.70;;
27303;SDS011;14791;52.392;13.092;2023-07-29T00:09:02;3.17;;;3.08;;
27303;SDS011;14791;52.392;13.092;2023-07-29T00:11:31;2.52;;;2.52;;
27303;SDS011;14791;52.392;13.092;2023-07-29T00:14:01;2.95;;;2.85;;
27303;SDS011;14791;52.392;13.092;2023-07-29T00:16:30;2.60;;;2.60;;
27303;SDS011;14791;52.392;13.092;2023-07-29T00:18:59;3.40;;;3.30;;
27303;SDS011;14791;52.392;13.092;2023-07-29T00:21:28;4.87;;;4.60;;
27303;SDS011;14791;52.392;13.092;2023-07-29T00:23:57;4.12;;;3.92;;
27303;SDS011;14791;52.392;13.092;2023-07-29T00:26:28;3.10;;;3.00;;
27303;SDS011;14791;52.392;13.092;2023-07-29T00:28:58;2.98;;;2.87;;
27303;SDS011;14791;52.392;13.092;2023-07-29T00:31:28;2.85;;;2.75;;
27303;SDS011;14791;52.392;13.092;2023-07-29T00:33:57;2.60;;;2.60;;
27303;SDS011;14791;52.392;13.092;2023-07-29T00:36:26;2.62;;;2.62;;
27303;SDS011;14791;52.392;13.092;2023-07-29T00:38:55;2.42;;;2.42;;
27303;SDS011;14791;52.392;13.092;2023-07-29T00:41:24;2.60;;;2.60;;
27303;SDS011;14791;52.392;13.092;2023-07-29T00:43:53;2.70;;;2.60;;
27303;SDS011;14791;52.392;13.092;2023-07-29T00:46:22;2.67;;;2.67;;
27303;SDS011;14791;52.392;13.092;2023-07-29T00:48:52;2.83;;;2.72;;
27303;SDS011;14791;52.392;13.092;2023-07-29T00:51:23;2.67;;;2.58;;
27303;SDS011;14791;52.392;13.092;2023-07-29T00:53:52;2.60;;;2.60;;
27303;SDS011;14791;52.392;13.092;2023-07-29T00:56:21;2.72;;;2.62;;
27303;SDS011;14791;52.392;13.092;2023-07-29T00:58:50;3.10;;;2.90;;
27303;SDS011;14791;52.392;13.092;2023-07-29T01:01:21;2.92;;;2.77;;
27303;SDS011;14791;52.392;13.092;2023-07-29T01:03:50;2.83;;;2.75;;
27303;SDS011;14791;52.392;13.092;2023-07-29T01:06:29;2.72;;;2.72;;
27303;SDS011;14791;52.392;13.092;2023-07-29T01:09:17;2.52;;;2.52;;
27303;SDS011;14791;52.392;13.092;2023-07-29T01:12:22;2.72;;;2.72;;
27303;SDS011;14791;52.392;13.092;2023-07-29T01:14:41;3.60;;;3.50;;
27303;SDS011;14791;52.392;13.092;2023-07-29T01:17:09;2.72;;;2.62;;
27303;SDS011;14791;52.392;13.092;2023-07-29T01:19:48;2.85;;;2.80;;
27303;SDS011;14791;52.392;13.092;2023-07-29T01:22:14;2.83;;;2.83;;
27303;SDS011;14791;52.392;13.092;2023-07-29T01:24:47;3.27;;;3.22;;
27303;SDS011;14791;52.392;13.092;2023-07-29T01:27:16;2.67;;;2.58;;
27303;SDS011;14791;52.392;13.092;2023-07-29T01:29:44;2.65;;;2.65;;
27303;SDS011;14791;52.392;13.092;2023-07-29T01:32:14;2.67;;;2.58;;
27303;SDS011;14791;52.392;13.092;2023-07-29T01:35:09;2.77;;;2.77;;
27303;SDS011;14791;52.392;13.092;2023-07-29T01:37:37;2.50;;;2.50;;
27303;SDS011;14791;52.392;13.092;2023-07-29T01:40:08;3.00;;;2.80;;
27303;SDS011;14791;52.392;13.092;2023-07-29T01:42:38;3.52;;;2.98;;
27303;SDS011;14791;52.392;13.092;2023-07-29T01:45:07;2.60;;;2.55;;
27303;SDS011;14791;52.392;13.092;2023-07-29T01:47:36;3.15;;;3.05;;
27303;SDS011;14791;52.392;13.092;2023-07-29T01:50:07;3.15;;;3.05;;
27303;SDS011;14791;52.392;13.092;2023-07-29T01:52:36;2.90;;;2.83;;
27303;SDS011;14791;52.392;13.092;2023-07-29T01:55:05;3.10;;;3.00;;
27303;SDS011;14791;52.392;13.092;2023-07-29T01:57:35;3.20;;;3.10;;
27303;SDS011;14791;52.392;13.092;2023-07-29T02:00:04;3.25;;;3.15;;
27303;SDS011;14791;52.392;13.092;2023-07-29T02:02:36;2.90;;;2.80;;
27303;SDS011;14791;52.392;13.092;2023-07-29T02:05:05;2.80;;;2.70;;
27303;SDS011;14791;52.392;13.092;2023-07-29T02:07:34;3.00;;;2.90;;
27303;SDS011;14791;52.392;13.092;2023-07-29T02:10:03;3.40;;;3.30;;
27303;SDS011;14791;52.392;13.092;2023-07-29T02:12:32;2.60;;;2.60;;
27303;SDS011;14791;52.392;13.092;2023-07-29T02:15:02;2.65;;;2.65;;
27303;SDS011;14791;52.392;13.092;2023-07-29T02:17:32;3.10;;;3.00;;
27303;SDS011;14791;52.392;13.092;2023-07-29T02:20:02;2.83;;;2.83;;
27303;SDS011;14791;52.392;13.092;2023-07-29T02:22:31;3.10;;;3.00;;
27303;SDS011;14791;52.392;13.092;2023-07-29T02:25:01;3.10;;;3.00;;
27303;SDS011;14791;52.392;13.092;2023-07-29T02:27:30;2.83;;;2.75;;
27303;SDS011;14791;52.392;13.092;2023-07-29T02:30:00;3.33;;;3.22;;
27303;SDS011;14791;52.392;13.092;2023-07-29T02:32:29;3.02;;;3.02;;
27303;SDS011;14791;52.392;13.092;2023-07-29T02:34:58;3.12;;;3.00;;
27303;SDS011;14791;52.392;13.092;2023-07-29T02:37:27;2.60;;;2.60;;
27303;SDS011;14791;52.392;13.092;2023-07-29T02:39:56;2.45;;;2.35;;
27303;SDS011;14791;52.392;13.092;2023-07-29T02:42:25;2.77;;;2.67;;
27303;SDS011;14791;52.392;13.092;2023-07-29T02:44:54;2.90;;;2.80;;
27303;SDS011;14791;52.392;13.092;2023-07-29T02:47:23;3.02;;;2.87;;
27303;SDS011;14791;52.392;13.092;2023-07-29T02:49:52;3.50;;;3.30;;
27303;SDS011;14791;52.392;13.092;2023-07-29T02:52:21;3.42;;;3.20;;
27303;SDS011;14791;52.392;13.092;2023-07-29T02:54:50;3.30;;;3.20;;
27303;SDS011;14791;52.392;13.092;2023-07-29T02:57:19;3.30;;;3.20;;
27303;SDS011;14791;52.392;13.092;2023-07-29T02:59:48;3.75;;;3.65;;
27303;SDS011;14791;52.392;13.092;2023-07-29T03:02:17;4.30;;;4.10;;
27303;SDS011;14791;52.392;13.092;2023-07-29T03:04:47;3.70;;;3.60;;
27303;SDS011;14791;52.392;13.092;2023-07-29T03:07:17;3.47;;;3.37;;
27303;SDS011;14791;52.392;13.092;2023-07-29T03:09:47;3.50;;;3.40;;
27303;SDS011;14791;52.392;13.092;2023-07-29T03:12:16;3.12;;;2.98;;
27303;SDS011;14791;52.392;13.092;2023-07-29T03:14:47;3.37;;;3.27;;
27303;SDS011;14791;52.392;13.092;2023-07-29T03:17:16;2.80;;;2.80;;
27303;SDS011;14791;52.392;13.092;2023-07-29T03:19:44;2.92;;;2.92;;
27303;SDS011;14791;52.392;13.092;2023-07-29T03:22:13;2.87;;;2.77;;
27303;SDS011;14791;52.392;13.092;2023-07-29T03:24:42;2.77;;;2.67;;
27303;SDS011;14791;52.392;13.092;2023-07-29T03:27:11;3.12;;;3.02;;
27303;SDS011;14791;52.392;13.092;2023-07-29T03:29:42;2.77;;;2.72;;
27303;SDS011;14791;52.392;13.092;2023-07-29T03:32:11;2.80;;;2.70;;
27303;SDS011;14791;52.392;13.092;2023-07-29T03:34:40;2.98;;;2.98;;
27303;SDS011;14791;52.392;13.092;2023-07-29T03:37:09;3.10;;;3.00;;
27303;SDS011;14791;52.392;13.092;2023-07-29T03:39:38;3.12;;;3.02;;
27303;SDS011;14791;52.392;13.092;2023-07-29T03:42:07;2.70;;;2.70;;
27303;SDS011;14791;52.392;13.092;2023-07-29T03:44:36;2.98;;;2.95;;
27303;SDS011;14791;52.392;13.092;2023-07-29T03:47:06;2.90;;;2.90;;
27303;SDS011;14791;52.392;13.092;2023-07-29T03:49:36;2.47;;;2.47;;
27303;SDS011;14791;52.392;13.092;2023-07-29T03:52:06;2.70;;;2.70;;
27303;SDS011;14791;52.392;13.092;2023-07-29T03:54:35;2.50;;;2.50;;
27303;SDS011;14791;52.392;13.092;2023-07-29T03:57:04;2.65;;;2.65;;
27303;SDS011;14791;52.392;13.092;2023-07-29T03:59:33;2.62;;;2.62;;
27303;SDS011;14791;52.392;13.092;2023-07-29T04:02:02;2.47;;;2.47;;
27303;SDS011;14791;52.392;13.092;2023-07-29T04:04:32;2.52;;;2.52;;
27303;SDS011;14791;52.392;13.092;2023-07-29T04:07:01;2.95;;;2.90;;
27303;SDS011;14791;52.392;13.092;2023-07-29T04:09:30;2.75;;;2.72;;
27303;SDS011;14791;52.392;13.092;2023-07-29T04:11:59;2.60;;;2.60;;
27303;SDS011;14791;52.392;13.092;2023-07-29T04:14:28;2.83;;;2.83;;
27303;SDS011;14791;52.392;13.092;2023-07-29T04:16:57;2.35;;;2.35;;
27303;SDS011;14791;52.392;13.092;2023-07-29T04:19:26;2.62;;;2.50;;
27303;SDS011;14791;52.392;13.092;2023-07-29T04:21:55;2.30;;;2.30;;
27303;SDS011;14791;52.392;13.092;2023-07-29T04:24:24;2.33;;;2.33;;
27303;SDS011;14791;52.392;13.092;2023-07-29T04:26:52;2.37;;;2.37;;
27303;SDS011;14791;52.392;13.092;2023-07-29T04:29:21;2.62;;;2.62;;
27303;SDS011;14791;52.392;13.092;2023-07-29T04:31:50;2.83;;;2.83;;
27303;SDS011;14791;52.392;13.092;2023-07-29T04:34:20;2.58;;;2.47;;
27303;SDS011;14791;52.392;13.092;2023-07-29T04:36:49;2.85;;;2.83;;
27303;SDS011;14791;52.392;13.092;2023-07-29T04:39:18;2.30;;;2.30;;
27303;SDS011;14791;52.392;13.092;2023-07-29T04:41:47;2.50;;;2.50;;
27303;SDS011;14791;52.392;13.092;2023-07-29T04:44:16;2.67;;;2.62;;
27303;SDS011;14791;52.392;13.092;2023-07-29T04:46:45;2.77;;;2.67;;
27303;SDS011;14791;52.392;13.092;2023-07-29T04:49:14;2.20;;;2.20;;
27303;SDS011;14791;52.392;13.092;2023-07-29T04:51:43;2.65;;;2.65;;
27303;SDS011;14791;52.392;13.092;2023-07-29T04:54:12;3.12;;;3.02;;
27303;SDS011;14791;52.392;13.092;2023-07-29T04:56:41;2.90;;;2.90;;
27303;SDS011;14791;52.392;13.092;2023-07-29T04:59:10;3.47;;;3.27;;
27303;SDS011;14791;52.392;13.092;2023-07-29T05:01:40;2.60;;;2.60;;
27303;SDS011;14791;52.392;13.092;2023-07-29T05:04:10;2.58;;;2.58;;
27303;SDS011;14791;52.392;13.092;2023-07-29T05:06:39;2.80;;;2.77;;
27303;SDS011;14791;52.392;13.092;2023-07-29T05:09:17;2.65;;;2.65;;
27303;SDS011;14791;52.392;13.092;2023-07-29T05:11:50;3.47;;;3.30;;
27303;SDS011;14791;52.392;13.092;2023-07-29T05:14:19;2.52;;;2.52;;
27303;SDS011;14791;52.392;13.092;2023-07-29T05:16:48;3.45;;;3.25;;
27303;SDS011;14791;52.392;13.092;2023-07-29T05:19:17;3.47;;;3.37;;
27303;SDS011;14791;52.392;13.092;2023-07-29T05:21:46;3.33;;;3.22;;
27303;SDS011;14791;52.392;13.092;2023-07-29T05:24:15;3.27;;;3.17;;
27303;SDS011;14791;52.392;13.092;2023-07-29T05:26:44;3.17;;;3.08;;
27303;SDS011;14791;52.392;13.092;2023-07-29T05:29:13;3.98;;;3.77;;
27303;SDS011;14791;52.392;13.092;2023-07-29T05:31:42;2.10;;;2.10;;
27303;SDS011;14791;52.392;13.092;2023-07-29T05:34:11;3.25;;;3.15;;
27303;SDS011;14791;52.392;13.092;2023-07-29T05:36:41;2.65;;;2.65;;
27303;SDS011;14791;52.392;13.092;2023-07-29T05:39:10;3.00;;;2.90;;
27303;SDS011;14791;52.392;13.092;2023-07-29T05:41:39;2.60;;;2.60;;
27303;SDS011;14791;52.392;13.092;2023-07-29T05:44:08;2.95;;;2.95;;
27303;SDS011;14791;52.392;13.092;2023-07-29T05:46:37;2.45;;;2.45;;
27303;SDS011;14791;52.392;13.092;2023-07-29T05:49:07;2.70;;;2.70;;
27303;SDS011;14791;52.392;13.092;2023-07-29T05:51:36;2.87;;;2.85;;
27303;SDS011;14791;52.392;13.092;2023-07-29T05:54:05;2.77;;;2.77;;
27303;SDS011;14791;52.392;13.092;2023-07-29T05:56:34;2.58;;;2.58;;
27303;SDS011;14791;52.392;13.092;2023-07-29T05:59:03;3.30;;;3.20;;
27303;SDS011;14791;52.392;13.092;2023-07-29T06:01:32;3.40;;;3.30;;
27303;SDS011;14791;52.392;13.092;2023-07-29T06:04:02;3.30;;;3.20;;
27303;SDS011;14791;52.392;13.092;2023-07-29T06:06:31;3.00;;;2.90;;
27303;SDS011;14791;52.392;13.092;2023-07-29T06:09:00;3.25;;;3.15;;
27303;SDS011;14791;52.392;13.092;2023-07-29T06:11:29;2.87;;;2.77;;
27303;SDS011;14791;52.392;13.092;2023-07-29T06:13:58;4.28;;;3.75;;
27303;SDS011;14791;52.392;13.092;2023-07-29T06:16:27;3.12;;;3.02;;
27303;SDS011;14791;52.392;13.092;2023-07-29T06:18:56;2.52;;;2.52;;
27303;SDS011;14791;52.392;13.092;2023-07-29T06:21:25;2.62;;;2.62;;
27303;SDS011;14791;52.392;13.092;2023-07-29T06:23:54;3.10;;;3.00;;
27303;SDS011;14791;52.392;13.092;2023-07-29T06:26:23;2.42;;;2.42;;
27303;SDS011;14791;52.392;13.092;2023-07-29T06:28:52;2.50;;;2.50;;
27303;SDS011;14791;52.392;13.092;2023-07-29T06:31:21;2.35;;;2.35;;
27303;SDS011;14791;52.392;13.092;2023-07-29T06:33:50;2.42;;;2.42;;
27303;SDS011;14791;52.392;13.092;2023-07-29T06:36:19;2.42;;;2.42;;
27303;SDS011;14791;52.392;13.092;2023-07-29T06:38:48;2.60;;;2.50;;
27303;SDS011;14791;52.392;13.092;2023-07-29T06:41:16;2.55;;;2.47;;
27303;SDS011;14791;52.392;13.092;2023-07-29T06:43:45;2.30;;;2.22;;
27303;SDS011;14791;52.392;13.092;2023-07-29T06:46:14;2.27;;;2.27;;
27303;SDS011;14791;52.392;13.092;2023-07-29T06:48:44;1.92;;;1.92;;
27303;SDS011;14791;52.392;13.092;2023-07-29T06:51:13;2.20;;;2.10;;
27303;SDS011;14791;52.392;13.092;2023-07-29T06:53:42;2.22;;;2.22;;
27303;SDS011;14791;52.392;13.092;2023-07-29T06:56:11;1.87;;;1.87;;
27303;SDS011;14791;52.392;13.092;2023-07-29T06:58:40;2.15;;;2.10;;
27303;SDS011;14791;52.392;13.092;2023-07-29T07:01:09;1.77;;;1.77;;
27303;SDS011;14791;52.392;13.092;2023-07-29T07:03:37;2.15;;;2.05;;
27303;SDS011;14791;52.392;13.092;2023-07-29T07:06:06;2.37;;;2.17;;
27303;SDS011;14791;52.392;13.092;2023-07-29T07:08:35;1.87;;;1.87;;
27303;SDS011;14791;52.392;13.092;2023-07-29T07:11:04;1.80;;;1.80;;
27303;SDS011;14791;52.392;13.092;2023-07-29T07:13:33;2.20;;;2.20;;
27303;SDS011;14791;52.392;13.092;2023-07-29T07:16:02;2.00;;;2.00;;
27303;SDS011;14791;52.392;13.092;2023-07-29T07:18:31;1.75;;;1.75;;
27303;SDS011;14791;52.392;13.092;2023-07-29T07:21:00;1.92;;;1.82;;
27303;SDS011;14791;52.392;13.092;2023-07-29T07:23:29;1.67;;;1.67;;
27303;SDS011;14791;52.392;13.092;2023-07-29T07:25:58;1.52;;;1.52;;
27303;SDS011;14791;52.392;13.092;2023-07-29T07:28:27;1.98;;;1.70;;
27303;SDS011;14791;52.392;13.092;2023-07-29T07:30:56;1.82;;;1.82;;
27303;SDS011;14791;52.392;13.092;2023-07-29T07:33:26;1.77;;;1.77;;
27303;SDS011;14791;52.392;13.092;2023-07-29T07:35:55;1.67;;;1.67;;
27303;SDS011;14791;52.392;13.092;2023-07-29T07:38:24;1.60;;;1.60;;
27303;SDS011;14791;52.392;13.092;2023-07-29T07:40:53;1.62;;;1.62;;
27303;SDS011;14791;52.392;13.092;2023-07-29T07:43:23;1.82;;;1.82;;
27303;SDS011;14791;52.392;13.092;2023-07-29T07:45:59;1.70;;;1.70;;
27303;SDS011;14791;52.392;13.092;2023-07-29T07:48:29;1.30;;;1.30;;
27303;SDS011;14791;52.392;13.092;2023-07-29T07:51:00;1.50;;;1.50;;
27303;SDS011;14791;52.392;13.092;2023-07-29T07:53:30;1.52;;;1.52;;
27303;SDS011;14791;52.392;13.092;2023-07-29T07:55:59;1.35;;;1.35;;
27303;SDS011;14791;52.392;13.092;2023-07-29T07:58:28;1.40;;;1.40;;
27303;SDS011;14791;52.392;13.092;2023-07-29T08:01:06;1.80;;;1.70;;
27303;SDS011;14791;52.392;13.092;2023-07-29T08:03:36;1.62;;;1.20;;
27303;SDS011;14791;52.392;13.092;2023-07-29T08:06:05;1.20;;;1.20;;
27303;SDS011;14791;52.392;13.092;2023-07-29T08:08:34;1.30;;;1.30;;
27303;SDS011;14791;52.392;13.092;2023-07-29T08:11:03;1.40;;;1.40;;
27303;SDS011;14791;52.392;13.092;2023-07-29T08:13:32;1.30;;;1.30;;
27303;SDS011;14791;52.392;13.092;2023-07-29T08:16:00;1.22;;;1.22;;
27303;SDS011;14791;52.392;13.092;2023-07-29T08:18:29;1.27;;;1.27;;
27303;SDS011;14791;52.392;13.092;2023-07-29T08:20:59;1.20;;;1.20;;
27303;SDS011;14791;52.392;13.092;2023-07-29T08:23:38;1.10;;;1.10;;
27303;SDS011;14791;52.392;13.092;2023-07-29T08:26:03;1.30;;;1.30;;
27303;SDS011;14791;52.392;13.092;2023-07-29T08:28:35;1.65;;;1.47;;
27303;SDS011;14791;52.392;13.092;2023-07-29T08:31:05;1.80;;;1.80;;
27303;SDS011;14791;52.392;13.092;2023-07-29T08:33:34;1.35;;;1.35;;
27303;SDS011;14791;52.392;13.092;2023-07-29T08:36:03;1.47;;;1.47;;
27303;SDS011;14791;52.392;13.092;2023-07-29T08:38:32;1.65;;;1.65;;
27303;SDS011;14791;52.392;13.092;2023-07-29T08:41:13;1.60;;;1.50;;
27303;SDS011;14791;52.392;13.092;2023-07-29T08:43:53;1.35;;;1.20;;
27303;SDS011;14791;52.392;13.092;2023-07-29T08:46:24;1.35;;;1.35;;
27303;SDS011;14791;52.392;13.092;2023-07-29T08:48:54;1.25;;;1.25;;
27303;SDS011;14791;52.392;13.092;2023-07-29T08:51:23;1.10;;;1.10;;
27303;SDS011;14791;52.392;13.092;2023-07-29T08:53:55;1.30;;;1.30;;
27303;SDS011;14791;52.392;13.092;2023-07-29T08:56:24;1.40;;;1.40;;
27303;SDS011;14791;52.392;13.092;2023-07-29T08:58:54;1.22;;;1.22;;
27303;SDS011;14791;52.392;13.092;2023-07-29T09:01:24;1.40;;;1.40;;
27303;SDS011;14791;52.392;13.092;2023-07-29T09:03:53;1.40;;;1.40;;
27303;SDS011;14791;52.392;13.092;2023-07-29T09:06:22;1.05;;;1.05;;
27303;SDS011;14791;52.392;13.092;2023-07-29T09:08:54;1.40;;;1.40;;
27303;SDS011;14791;52.392;13.092;2023-07-29T09:11:26;2.05;;;1.55;;
27303;SDS011;14791;52.392;13.092;2023-07-29T09:13:56;1.10;;;1.10;;
27303;SDS011;14791;52.392;13.092;2023-07-29T09:16:25;1.22;;;1.22;;
27303;SDS011;14791;52.392;13.092;2023-07-29T09:18:54;1.25;;;1.25;;
27303;SDS011;14791;52.392;13.092;2023-07-29T09:21:24;1.30;;;1.30;;
27303;SDS011;14791;52.392;13.092;2023-07-29T09:23:55;1.10;;;1.10;;
27303;SDS011;14791;52.392;13.092;2023-07-29T09:26:27;0.93;;;0.93;;
27303;SDS011;14791;52.392;13.092;2023-07-29T09:28:58;1.65;;;1.15;;
27303;SDS011;14791;52.392;13.092;2023-07-29T09:31:28;1.25;;;1.25;;
27303;SDS011;14791;52.392;13.092;2023-07-29T09:33:58;1.20;;;1.20;;
27303;SDS011;14791;52.392;13.092;2023-07-29T09:36:32;1.10;;;1.10;;
27303;SDS011;14791;52.392;13.092;2023-07-29T09:39:02;1.47;;;1.37;;
27303;SDS011;14791;52.392;13.092;2023-07-29T09:41:31;1.20;;;1.20;;
27303;SDS011;14791;52.392;13.092;2023-07-29T09:44:01;1.10;;;1.10;;
27303;SDS011;14791;52.392;13.092;2023-07-29T09:46:35;1.20;;;1.20;;
27303;SDS011;14791;52.392;13.092;2023-07-29T09:49:05;1.10;;;1.10;;
27303;SDS011;14791;52.392;13.092;2023-07-29T09:51:38;1.00;;;1.00;;
27303;SDS011;14791;52.392;13.092;2023-07-29T09:54:07;1.10;;;1.10;;
27303;SDS011;14791;52.392;13.092;2023-07-29T09:56:41;1.37;;;1.25;;
27303;SDS011;14791;52.392;13.092;2023-07-29T09:59:11;1.20;;;1.20;;
27303;SDS011;14791;52.392;13.092;2023-07-29T10:01:40;1.95;;;1.50;;
27303;SDS011;14791;52.392;13.092;2023-07-29T10:04:09;1.37;;;1.37;;
27303;SDS011;14791;52.392;13.092;2023-07-29T10:06:41;1.20;;;1.20;;
27303;SDS011;14791;52.392;13.092;2023-07-29T10:09:13;1.40;;;1.40;;
27303;SDS011;14791;52.392;13.092;2023-07-29T10:11:43;1.37;;;1.37;;
27303;SDS011;14791;52.392;13.092;2023-07-29T10:14:12;1.30;;;1.30;;
27303;SDS011;14791;52.392;13.092;2023-07-29T10:16:41;1.20;;;1.20;;
27303;SDS011;14791;52.392;13.092;2023-07-29T10:19:12;1.35;;;1.30;;
27303;SDS011;14791;52.392;13.092;2023-07-29T10:21:44;1.20;;;1.20;;
27303;SDS011;14791;52.392;13.092;2023-07-29T10:24:18;1.20;;;1.20;;
27303;SDS011;14791;52.392;13.092;2023-07-29T10:26:50;0.93;;;0.93;;
27303;SDS011;14791;52.392;13.092;2023-07-29T10:29:20;1.50;;;1.50;;
27303;SDS011;14791;52.392;13.092;2023-07-29T10:31:52;1.25;;;1.20;;
27303;SDS011;14791;52.392;13.092;2023-07-29T10:34:21;1.02;;;1.02;;
27303;SDS011;14791;52.392;13.092;2023-07-29T10:36:50;1.22;;;1.22;;
27303;SDS011;14791;52.392;13.092;2023-07-29T10:39:20;1.15;;;1.15;;
27303;SDS011;14791;52.392;13.092;2023-07-29T10:41:55;1.20;;;1.20;;
27303;SDS011;14791;52.392;13.092;2023-07-29T10:49:53;1.40;;;1.30;;
27303;SDS011;14791;52.392;13.092;2023-07-29T10:52:48;1.25;;;1.25;;
27303;SDS011;14791;52.392;13.092;2023-07-29T10:55:01;1.17;;;1.17;;
27303;SDS011;14791;52.392;13.092;2023-07-29T10:57:32;1.40;;;1.40;;
27303;SDS011;14791;52.392;13.092;2023-07-29T11:00:03;1.50;;;1.50;;
27303;SDS011;14791;52.392;13.092;2023-07-29T11:02:36;1.70;;;1.60;;
27303;SDS011;14791;52.392;13.092;2023-07-29T11:05:15;1.40;;;1.40;;
27303;SDS011;14791;52.392;13.092;2023-07-29T11:07:53;1.27;;;1.27;;
27303;SDS011;14791;52.392;13.092;2023-07-29T11:10:17;1.50;;;1.50;;
27303;SDS011;14791;52.392;13.092;2023-07-29T11:12:46;1.30;;;1.30;;
27303;SDS011;14791;52.392;13.092;2023-07-29T11:17:56;1.72;;;1.62;;
27303;SDS011;14791;52.392;13.092;2023-07-29T11:20:30;1.62;;;1.62;;
27303;SDS011;14791;52.392;13.092;2023-07-29T11:23:01;3.80;;;1.87;;
27303;SDS011;14791;52.392;13.092;2023-07-29T11:25:31;3.72;;;2.50;;
27303;SDS011;14791;52.392;13.092;2023-07-29T11:28:03;1.35;;;1.35;;
27303;SDS011;14791;52.392;13.092;2023-07-29T11:30:32;1.95;;;1.82;;
27303;SDS011;14791;52.392;13.092;2023-07-29T11:33:01;1.65;;;1.65;;
27303;SDS011;14791;52.392;13.092;2023-07-29T11:35:31;1.70;;;1.70;;
27303;SDS011;14791;52.392;13.092;2023-07-29T11:38:01;1.50;;;1.50;;
27303;SDS011;14791;52.392;13.092;2023-07-29T11:40:30;1.57;;;1.57;;
27303;SDS011;14791;52.392;13.092;2023-07-29T11:42:59;1.92;;;1.85;;
27303;SDS011;14791;52.392;13.092;2023-07-29T11:45:28;1.77;;;1.77;;
27303;SDS011;14791;52.392;13.092;2023-07-29T11:47:57;1.85;;;1.75;;
27303;SDS011;14791;52.392;13.092;2023-07-29T11:50:26;1.92;;;1.90;;
27303;SDS011;14791;52.392;13.092;2023-07-29T11:52:55;2.80;;;2.10;;
27303;SDS011;14791;52.392;13.092;2023-07-29T11:55:24;2.15;;;1.95;;
27303;SDS011;14791;52.392;13.092;2023-07-29T11:57:53;1.62;;;1.60;;
27303;SDS011;14791;52.392;13.092;2023-07-29T12:00:22;1.80;;;1.67;;
27303;SDS011;14791;52.392;13.092;2023-07-29T12:02:51;1.67;;;1.57;;
27303;SDS011;14791;52.392;13.092;2023-07-29T12:05:21;1.80;;;1.80;;
27303;SDS011;14791;52.392;13.092;2023-07-29T12:07:52;1.60;;;1.60;;
27303;SDS011;14791;52.392;13.092;2023-07-29T12:10:21;1.98;;;1.87;;
27303;SDS011;14791;52.392;13.092;2023-07-29T12:12:50;1.80;;;1.80;;
27303;SDS011;14791;52.392;13.092;2023-07-29T12:15:23;1.50;;;1.50;;
27303;SDS011;14791;52.392;13.092;2023-07-29T12:17:56;1.60;;;1.60;;
27303;SDS011;14791;52.392;13.092;2023-07-29T12:20:26;1.50;;;1.50;;
27303;SDS011;14791;52.392;13.092;2023-07-29T12:22:58;1.50;;;1.50;;
27303;SDS011;14791;52.392;13.092;2023-07-29T12:25:32;1.65;;;1.65;;
27303;SDS011;14791;52.392;13.092;2023-07-29T12:28:05;1.70;;;1.70;;
27303;SDS011;14791;52.392;13.092;2023-07-29T12:30:41;1.98;;;1.90;;
27303;SDS011;14791;52.392;13.092;2023-07-29T12:33:11;1.98;;;1.98;;
27303;SDS011;14791;52.392;13.092;2023-07-29T12:35:41;1.45;;;1.45;;
27303;SDS011;14791;52.392;13.092;2023-07-29T12:38:12;1.62;;;1.62;;
27303;SDS011;14791;52.392;13.092;2023-07-29T12:40:44;1.65;;;1.65;;
27303;SDS011;14791;52.392;13.092;2023-07-29T12:43:12;1.50;;;1.50;;
27303;SDS011;14791;52.392;13.092;2023-07-29T12:45:41;1.55;;;1.55;;
27303;SDS011;14791;52.392;13.092;2023-07-29T12:48:11;1.35;;;1.35;;
27303;SDS011;14791;52.392;13.092;2023-07-29T12:50:40;1.40;;;1.40;;
27303;SDS011;14791;52.392;13.092;2023-07-29T12:53:09;2.77;;;1.40;;
27303;SDS011;14791;52.392;13.092;2023-07-29T12:55:38;1.30;;;1.30;;
27303;SDS011;14791;52.392;13.092;2023-07-29T12:58:07;1.30;;;1.30;;
27303;SDS011;14791;52.392;13.092;2023-07-29T13:00:36;1.42;;;1.42;;
27303;SDS011;14791;52.392;13.092;2023-07-29T13:03:05;1.62;;;1.60;;
27303;SDS011;14791;52.392;13.092;2023-07-29T13:05:34;1.50;;;1.50;;
27303;SDS011;14791;52.392;13.092;2023-07-29T13:08:03;1.17;;;1.17;;
27303;SDS011;14791;52.392;13.092;2023-07-29T13:10:32;1.32;;;1.32;;
27303;SDS011;14791;52.392;13.092;2023-07-29T13:13:01;1.40;;;1.40;;
27303;SDS011;14791;52.392;13.092;2023-07-29T13:15:30;1.47;;;1.10;;
27303;SDS011;14791;52.392;13.092;2023-07-29T13:17:58;1.22;;;1.22;;
27303;SDS011;14791;52.392;13.092;2023-07-29T13:20:27;1.12;;;1.12;;
27303;SDS011;14791;52.392;13.092;2023-07-29T13:22:57;1.15;;;1.15;;
27303;SDS011;14791;52.392;13.092;2023-07-29T13:25:26;1.30;;;1.30;;
27303;SDS011;14791;52.392;13.092;2023-07-29T13:27:55;1.17;;;1.17;;
27303;SDS011;14791;52.392;13.092;2023-07-29T13:30:24;1.10;;;1.10;;
27303;SDS011;14791;52.392;13.092;2023-07-29T13:32:52;0.90;;;0.90;;
27303;SDS011;14791;52.392;13.092;2023-07-29T13:35:21;1.15;;;1.15;;
27303;SDS011;14791;52.392;13.092;2023-07-29T13:37:50;1.02;;;1.02;;
27303;SDS011;14791;52.392;13.092;2023-07-29T13:40:19;0.88;;;0.88;;
27303;SDS011;14791;52.392;13.092;2023-07-29T13:42:48;1.00;;;1.00;;
27303;SDS011;14791;52.392;13.092;2023-07-29T13:45:18;1.00;;;1.00;;
27303;SDS011;14791;52.392;13.092;2023-07-29T13:47:48;1.00;;;1.00;;
27303;SDS011;14791;52.392;13.092;2023-07-29T13:50:18;0.80;;;0.80;;
27303;SDS011;14791;52.392;13.092;2023-07-29T13:52:47;0.90;;;0.90;;
27303;SDS011;14791;52.392;13.092;2023-07-29T13:55:16;0.98;;;0.98;;
27303;SDS011;14791;52.392;13.092;2023-07-29T13:57:45;0.82;;;0.82;;
27303;SDS011;14791;52.392;13.092;2023-07-29T14:00:14;1.00;;;1.00;;
27303;SDS011;14791;52.392;13.092;2023-07-29T14:02:43;0.90;;;0.90;;
27303;SDS011;14791;52.392;13.092;2023-07-29T14:05:12;0.88;;;0.88;;
27303;SDS011;14791;52.392;13.092;2023-07-29T14:07:41;1.10;;;1.10;;
27303;SDS011;14791;52.392;13.092;2023-07-29T14:10:10;1.55;;;1.00;;
27303;SDS011;14791;52.392;13.092;2023-07-29T14:12:39;0.88;;;0.88;;
27303;SDS011;14791;52.392;13.092;2023-07-29T14:15:08;0.90;;;0.90;;
27303;SDS011;14791;52.392;13.092;2023-07-29T14:17:37;1.00;;;1.00;;
27303;SDS011;14791;52.392;13.092;2023-07-29T14:20:06;1.07;;;0.80;;
27303;SDS011;14791;52.392;13.092;2023-07-29T14:22:36;1.00;;;1.00;;
27303;SDS011;14791;52.392;13.092;2023-07-29T14:25:05;0.70;;;0.70;;
27303;SDS011;14791;52.392;13.092;2023-07-29T14:27:35;0.90;;;0.90;;
27303;SDS011;14791;52.392;13.092;2023-07-29T14:30:04;0.80;;;0.80;;
27303;SDS011;14791;52.392;13.092;2023-07-29T14:32:34;0.80;;;0.80;;
27303;SDS011;14791;52.392;13.092;2023-07-29T14:35:04;0.72;;;0.72;;
27303;SDS011;14791;52.392;13.092;2023-07-29T14:37:35;0.80;;;0.80;;
27303;SDS011;14791;52.392;13.092;2023-07-29T14:40:05;0.80;;;0.80;;
27303;SDS011;14791;52.392;13.092;2023-07-29T14:42:34;1.00;;;0.78;;
27303;SDS011;14791;52.392;13.092;2023-07-29T14:45:03;0.60;;;0.60;;
27303;SDS011;14791;52.392;13.092;2023-07-29T14:47:33;0.70;;;0.70;;
27303;SDS011;14791;52.392;13.092;2023-07-29T14:50:02;1.20;;;1.10;;
27303;SDS011;14791;52.392;13.092;2023-07-29T14:52:31;0.68;;;0.68;;
27303;SDS011;14791;52.392;13.092;2023-07-29T14:55:00;0.70;;;0.70;;
27303;SDS011;14791;52.392;13.092;2023-07-29T14:57:29;0.70;;;0.70;;